EDT,Max TemperatureF,Mean TemperatureF,Min TemperatureF,Max Dew PointF,MeanDew PointF,Min DewpointF,Max Humidity, Mean Humidity, Min Humidity, Max Sea Level PressureIn, Mean Sea Level PressureIn, Min Sea Level PressureIn, Max VisibilityMiles, Mean VisibilityMiles, Min VisibilityMiles, Max Wind SpeedMPH, Mean Wind SpeedMPH, Max Gust SpeedMPH,PrecipitationIn, CloudCover, Events, WindDirDegrees
2013-3-1,28,24,21,27,22,18,100,88,80,29.93,29.78,29.68,10,4,1,17,13,24,0.02,8,Rain-Snow,302
2013-3-2,21,20,19,18,16,14,93,87,74,29.91,29.82,29.76,10,3,0,17,10,21,0.02,8,Fog-Snow,304
2013-3-3,21,19,17,18,16,12,93,85,78,29.96,29.83,29.75,5,2,0,18,15,26,0.01,8,Snow,289
2013-3-4,27,21,15,16,12,10,86,77,60,30.07,29.97,29.85,10,4,1,22,16,33,0.01,6,Snow,290
2013-3-5,39,27,15,21,13,-1,81,58,19,30.07,29.94,29.72,10,10,10,16,5,26,0.00,1,,86
2013-3-6,34,30,26,27,24,21,96,83,64,30.09,29.83,29.64,10,4,0,16,11,26,0.26,8,Fog-Rain-Snow,37
2013-3-7,33,30,27,27,25,22,93,82,65,30.23,30.14,30.08,10,8,0,21,11,25,0.01,8,Fog-Snow,314
2013-3-8,35,30,25,23,22,21,88,77,59,30.39,30.26,30.13,10,9,2,21,16,29,0.00,6,Snow,310
2013-3-9,48,34,21,22,19,15,96,60,27,30.40,30.32,30.25,10,9,2,9,5,,0.00,0,,203
2013-3-10,52,46,39,25,20,14,44,37,32,30.24,30.17,30.10,10,10,10,17,10,22,0.00,2,,167
2013-3-11,48,44,42,43,29,22,89,55,40,30.10,29.94,29.76,10,10,10,22,11,32,0.02,6,Rain,160
2013-3-12,46,38,30,45,35,23,100,91,72,29.98,29.81,29.74,10,5,0,17,11,26,0.49,8,Fog-Rain-Snow,261
2013-3-13,30,24,19,27,22,14,100,82,59,30.05,29.89,29.83,10,4,0,24,12,34,0.03,8,Fog-Snow,269
2013-3-14,30,24,19,18,14,12,93,75,49,30.15,30.05,29.96,10,5,0,23,17,37,0.00,7,Fog-Snow,280
2013-3-15,39,30,21,32,23,13,96,70,54,30.11,29.91,29.78,10,9,2,23,12,31,0.00,5,Rain-Snow,274
2013-3-16,35,32,28,34,31,28,100,96,87,29.92,29.73,29.60,10,1,0,14,5,16,0.11,8,Fog-Rain-Snow-Thunderstorm,6
2013-3-17,30,26,21,29,21,17,100,81,64,30.22,30.06,29.86,10,8,0,15,8,18,0.00,6,Fog,328
2013-3-18,28,26,24,27,21,17,100,84,69,30.19,29.98,29.73,10,4,0,23,13,36,0.14,8,Fog-Rain-Snow,140
2013-3-19,37,30,24,32,25,13,100,82,41,29.93,29.76,29.66,10,6,0,25,13,43,0.05,8,Fog-Rain-Snow,246
2013-3-20,32,26,21,21,17,9,86,70,47,29.94,29.82,29.73,10,6,0,21,13,29,0.00,8,Fog-Snow,284
2013-3-21,21,16,12,16,11,5,92,77,57,29.87,29.77,29.69,10,5,0,22,11,28,0.00,8,Fog-Snow,281
2013-3-22,25,22,19,18,16,14,93,80,63,30.01,29.84,29.74,10,5,1,20,15,30,0.00,8,Snow,273
2013-3-23,37,29,21,20,18,16,82,66,48,30.03,29.99,29.89,10,10,9,16,7,23,0.00,5,,297
2013-3-24,34,27,21,23,19,16,81,69,54,29.98,29.78,29.55,10,9,2,9,5,21,0.00,3,Snow,99
2013-3-25,30,28,26,28,26,23,100,89,80,29.70,29.50,29.43,6,2,0,12,7,24,0.42,8,Fog-Snow,134
2013-3-26,36,31,26,29,27,24,96,87,62,30.03,29.86,29.65,10,6,0,20,9,25,0.03,8,Fog-Rain-Snow,306
2013-3-27,34,31,28,28,26,21,100,88,59,30.13,30.02,29.94,10,3,1,20,13,26,0.06,8,Snow,289
2013-3-28,33,30,28,28,27,26,93,89,75,30.25,30.10,30.01,10,4,0,20,12,26,0.02,8,Fog-Snow,291
2013-3-29,43,36,30,26,24,20,85,64,43,30.26,30.22,30.17,10,10,10,12,7,25,0.00,8,,292
2013-3-30,46,38,30,21,17,14,69,46,29,30.24,30.17,30.08,10,10,10,7,4,,0.00,0,,272
2013-3-31,42,40,37,40,35,15,100,83,38,30.06,29.78,29.69,10,6,0,20,10,31,0.33,7,Fog-Rain,200